createdAt,value
2019-01-26T00:03:01.081Z,65.29
2019-01-26T00:06:06.007Z,65.35
2019-01-26T00:09:10.676Z,65.44
2019-01-26T00:12:15.130Z,65.01
2019-01-26T00:15:19.559Z,65.33
2019-01-26T00:18:24.111Z,65.02
2019-01-26T00:21:28.842Z,65.49
2019-01-26T00:24:33.573Z,65.05
2019-01-26T00:27:38.308Z,64.78
2019-01-26T00:30:43.038Z,64.94
2019-01-26T00:33:47.464Z,65.48
2019-01-26T00:36:52.185Z,65.54
2019-01-26T00:39:56.637Z,66.17
2019-01-26T00:43:01.074Z,67.00
2019-01-26T00:46:06.502Z,67.92
2019-01-26T00:49:10.950Z,69.96
2019-01-26T00:52:15.474Z,70.96
2019-01-26T00:55:19.938Z,70.95
2019-01-26T00:58:24.414Z,72.16
2019-01-26T01:01:28.822Z,72.49
2019-01-26T01:04:33.263Z,73.22
2019-01-26T01:07:38.115Z,73.62
2019-01-26T01:10:42.525Z,74.26
2019-01-26T01:13:47.228Z,74.76
2019-01-26T01:16:51.678Z,75.06
2019-01-26T01:19:56.378Z,75.12
2019-01-26T01:23:00.813Z,75.61
2019-01-26T01:26:05.733Z,76.92
2019-01-26T01:29:10.241Z,76.55
2019-01-26T01:32:15.089Z,76.31
2019-01-26T01:35:19.593Z,77.25
2019-01-26T01:38:24.033Z,78.37
2019-01-26T01:41:28.475Z,78.77
2019-01-26T01:44:32.915Z,78.28
2019-01-26T01:47:37.390Z,77.93
2019-01-26T01:50:41.801Z,77.39
2019-01-26T01:53:46.253Z,77.72
2019-01-26T01:56:50.687Z,78.04
2019-01-26T01:59:55.416Z,77.88
2019-01-26T02:03:00.145Z,77.83
2019-01-26T02:06:04.818Z,77.50
2019-01-26T02:09:09.599Z,78.60
2019-01-26T02:12:14.342Z,78.93
2019-01-26T02:15:18.987Z,79.09
2019-01-26T02:18:23.425Z,79.42
2019-01-26T02:21:27.881Z,79.27
2019-01-26T02:24:32.309Z,79.84
2019-01-26T02:27:36.755Z,80.60
2019-01-26T02:30:41.184Z,80.79
2019-01-26T02:33:45.920Z,80.62
2019-01-26T02:36:50.352Z,80.89
2019-01-26T02:39:55.065Z,82.30
2019-01-26T02:42:59.803Z,82.85
2019-01-26T02:46:04.296Z,83.29
2019-01-26T02:49:08.734Z,83.81
2019-01-26T02:52:13.178Z,84.37
2019-01-26T02:55:17.904Z,82.99
2019-01-26T02:58:22.641Z,83.05
2019-01-26T03:01:27.061Z,83.15
2019-01-26T03:04:31.579Z,83.68
2019-01-26T03:07:36.026Z,85.23
2019-01-26T03:10:40.466Z,85.45
2019-01-26T03:13:44.926Z,85.67
2019-01-26T03:16:49.695Z,86.04
2019-01-26T03:19:54.140Z,85.94
2019-01-26T03:22:58.575Z,85.64
2019-01-26T03:26:03.018Z,84.49
2019-01-26T03:29:07.525Z,84.60
2019-01-26T03:32:11.960Z,84.60
2019-01-26T03:35:16.845Z,84.83
2019-01-26T03:38:21.281Z,83.93
2019-01-26T03:41:25.720Z,84.05
2019-01-26T03:44:30.169Z,83.90
2019-01-26T03:47:34.615Z,83.98
2019-01-26T03:50:39.378Z,83.88
2019-01-26T03:53:44.112Z,83.98
2019-01-26T03:56:48.582Z,83.65
2019-01-26T03:59:53.017Z,83.63
2019-01-26T04:02:57.513Z,83.82
2019-01-26T04:06:02.318Z,84.09
2019-01-26T04:09:08.848Z,84.08
2019-01-26T04:12:13.619Z,84.42
2019-01-26T04:15:20.413Z,84.37
2019-01-26T04:18:24.847Z,83.89
2019-01-26T04:21:29.291Z,83.63
2019-01-26T04:24:33.754Z,84.19
2019-01-26T04:27:38.624Z,83.73
2019-01-26T04:30:43.077Z,83.80
2019-01-26T04:33:47.512Z,83.59
2019-01-26T04:36:51.968Z,83.36
2019-01-26T04:39:56.699Z,83.38
2019-01-26T04:43:01.432Z,83.33
2019-01-26T04:46:06.161Z,83.32
2019-01-26T04:49:10.893Z,83.37
2019-01-26T04:52:15.339Z,84.09
2019-01-26T04:55:21.627Z,84.87
2019-01-26T04:58:26.320Z,85.22
2019-01-26T05:01:31.063Z,84.77
2019-01-26T05:04:35.485Z,84.56
2019-01-26T05:07:40.209Z,84.97
2019-01-26T05:10:44.719Z,85.27
2019-01-26T05:13:49.466Z,84.64
2019-01-26T05:16:53.905Z,84.64
2019-01-26T05:19:58.339Z,85.19
2019-01-26T05:23:02.785Z,85.44
2019-01-26T05:26:07.226Z,85.03
2019-01-26T05:29:11.993Z,85.13
2019-01-26T05:32:16.733Z,84.77
2019-01-26T05:35:21.160Z,84.73
2019-01-26T05:38:25.866Z,84.62
2019-01-26T05:41:30.308Z,84.98
2019-01-26T05:44:35.027Z,84.56
2019-01-26T05:47:47.677Z,84.43
2019-01-26T05:50:45.627Z,84.72
2019-01-26T05:53:50.343Z,84.29
2019-01-26T05:56:55.072Z,84.71
2019-01-26T05:59:59.528Z,84.96
2019-01-26T06:03:03.940Z,84.83
2019-01-26T06:06:08.655Z,84.60
2019-01-26T06:09:13.101Z,84.81
2019-01-26T06:12:17.542Z,84.14
2019-01-26T06:15:22.336Z,84.72
2019-01-26T06:18:27.062Z,85.32
2019-01-26T06:21:31.502Z,85.67
2019-01-26T06:24:35.938Z,86.31
2019-01-26T06:27:40.459Z,86.25
2019-01-26T06:30:45.164Z,86.91
2019-01-26T06:33:49.667Z,87.04
2019-01-26T06:36:54.418Z,87.02
2019-01-26T06:39:59.165Z,86.28
2019-01-26T06:43:03.881Z,85.93
2019-01-26T06:46:08.611Z,85.47
2019-01-26T06:49:13.448Z,85.32
2019-01-26T06:52:18.179Z,85.13
2019-01-26T06:55:22.616Z,85.37
2019-01-26T06:58:27.338Z,85.81
2019-01-26T07:01:31.767Z,85.68
2019-01-26T07:04:40.758Z,85.71
2019-01-26T07:07:45.515Z,86.66
2019-01-26T07:10:49.964Z,86.77
2019-01-26T07:13:54.397Z,86.92
2019-01-26T07:16:59.104Z,86.97
2019-01-26T07:20:05.366Z,87.11
2019-01-26T07:23:10.202Z,86.89
2019-01-26T07:26:14.928Z,86.87
2019-01-26T07:29:19.360Z,86.96
2019-01-26T07:32:24.079Z,87.55
2019-01-26T07:35:28.811Z,87.73
2019-01-26T07:38:33.649Z,87.42
2019-01-26T07:41:38.369Z,87.29
2019-01-26T07:44:42.795Z,86.88
2019-01-26T07:47:47.257Z,86.40
2019-01-26T07:50:52.055Z,86.42
2019-01-26T07:53:56.786Z,85.25
2019-01-26T07:57:01.520Z,85.03
2019-01-26T08:00:13.641Z,84.54
2019-01-26T08:03:18.454Z,84.47
2019-01-26T08:06:23.183Z,83.84
2019-01-26T08:09:27.623Z,84.55
2019-01-26T08:12:32.350Z,85.15
2019-01-26T08:15:37.178Z,85.85
2019-01-26T08:18:42.731Z,85.83
2019-01-26T08:21:47.449Z,85.48
2019-01-26T08:24:52.290Z,84.67
2019-01-26T08:27:56.780Z,83.84
2019-01-26T08:31:01.223Z,83.19
2019-01-26T08:34:05.970Z,82.71
2019-01-26T08:37:10.695Z,82.61
2019-01-26T08:40:18.539Z,81.82
2019-01-26T08:43:22.978Z,81.52
2019-01-26T08:46:27.408Z,81.20
2019-01-26T08:49:32.173Z,81.21
2019-01-26T08:52:36.904Z,80.89
2019-01-26T08:55:41.343Z,81.61
2019-01-26T08:58:46.063Z,80.53
2019-01-26T09:01:52.133Z,79.83
2019-01-26T09:04:57.341Z,79.61
2019-01-26T09:08:01.763Z,79.32
2019-01-26T09:11:06.725Z,79.53
2019-01-26T09:14:11.179Z,79.41
2019-01-26T09:17:16.018Z,79.29
2019-01-26T09:20:20.649Z,78.96
2019-01-26T09:23:25.351Z,78.60
2019-01-26T09:26:29.773Z,79.42
2019-01-26T09:29:34.495Z,79.10
2019-01-26T09:32:38.923Z,78.66
2019-01-26T09:35:43.647Z,79.06
2019-01-26T09:38:48.385Z,78.99
2019-01-26T09:41:52.817Z,78.75
2019-01-26T09:44:57.735Z,78.38
2019-01-26T09:48:02.723Z,78.41
2019-01-26T09:51:07.507Z,77.73
2019-01-26T09:54:12.004Z,78.23
2019-01-26T09:57:16.445Z,78.50
2019-01-26T10:00:26.852Z,78.55
2019-01-26T10:03:31.549Z,78.65
2019-01-26T10:06:36.292Z,78.72
2019-01-26T10:09:41.022Z,78.81
2019-01-26T10:12:45.463Z,78.37
2019-01-26T10:15:50.188Z,78.78
2019-01-26T10:18:54.978Z,78.13
2019-01-26T10:21:59.411Z,77.97
2019-01-26T10:25:04.475Z,77.84
2019-01-26T10:28:09.295Z,77.54
2019-01-26T10:31:14.024Z,77.33
2019-01-26T10:34:18.455Z,77.41
2019-01-26T10:37:24.156Z,77.43
2019-01-26T10:40:46.852Z,76.43
2019-01-26T10:43:53.337Z,76.76
2019-01-26T10:46:58.056Z,76.05
2019-01-26T10:50:02.487Z,72.84
2019-01-26T10:53:07.212Z,66.80
2019-01-26T10:56:11.646Z,62.29
2019-01-26T10:59:16.082Z,58.80
2019-01-26T11:02:21.007Z,59.76
2019-01-26T11:05:25.725Z,60.31
2019-01-26T11:08:30.456Z,61.65
2019-01-26T11:11:35.191Z,62.28
2019-01-26T11:14:39.611Z,63.98
2019-01-26T11:17:44.343Z,65.43
2019-01-26T11:20:49.069Z,66.54
2019-01-26T11:23:53.812Z,67.77
2019-01-26T11:26:58.539Z,68.79
2019-01-26T11:30:03.360Z,69.25
2019-01-26T11:33:07.802Z,69.64
2019-01-26T11:36:12.228Z,69.90
2019-01-26T11:39:16.949Z,70.55
2019-01-26T11:42:21.379Z,70.19
2019-01-26T11:45:27.731Z,70.52
2019-01-26T11:48:33.809Z,70.29
2019-01-26T11:51:42.479Z,69.09
2019-01-26T11:54:48.552Z,69.64
2019-01-26T11:57:53.308Z,69.22
2019-01-26T12:01:08.359Z,69.02
2019-01-26T12:04:17.340Z,68.80
2019-01-26T12:07:21.765Z,68.58
2019-01-26T12:10:26.195Z,68.49
2019-01-26T12:13:30.993Z,68.50
2019-01-26T12:16:35.832Z,68.27
2019-01-26T12:19:40.563Z,68.76
2019-01-26T12:22:44.993Z,69.30
2019-01-26T12:25:49.728Z,69.74
2019-01-26T12:28:54.161Z,70.07
2019-01-26T12:31:58.875Z,70.68
2019-01-26T12:35:04.935Z,70.63
2019-01-26T12:38:09.369Z,71.62
2019-01-26T12:41:13.793Z,71.47
2019-01-26T12:44:18.231Z,71.66
2019-01-26T12:47:22.953Z,72.18
2019-01-26T12:50:27.390Z,72.14
2019-01-26T12:53:31.887Z,72.36
2019-01-26T12:56:36.615Z,72.13
2019-01-26T12:59:41.060Z,71.64
2019-01-26T13:02:45.766Z,72.02
2019-01-26T13:05:50.495Z,71.88
2019-01-26T13:08:54.933Z,72.61
2019-01-26T13:11:59.794Z,73.04
2019-01-26T13:15:05.617Z,73.85
2019-01-26T13:18:10.055Z,73.64
2019-01-26T13:21:14.504Z,73.79
2019-01-26T13:24:19.535Z,73.54
2019-01-26T13:27:23.993Z,73.81
2019-01-26T13:30:28.860Z,73.74
2019-01-26T13:33:34.457Z,73.75
2019-01-26T13:36:38.944Z,74.13
2019-01-26T13:39:43.392Z,74.09
2019-01-26T13:42:48.111Z,74.18
2019-01-26T13:45:52.594Z,73.84
2019-01-26T13:48:58.705Z,73.58
2019-01-26T13:52:03.527Z,73.60
2019-01-26T13:55:18.540Z,73.64
2019-01-26T13:58:23.060Z,73.68
2019-01-26T14:01:27.490Z,73.59
2019-01-26T14:04:31.932Z,73.65
2019-01-26T14:07:36.908Z,73.66
2019-01-26T14:10:41.636Z,73.80
2019-01-26T14:13:46.376Z,74.92
2019-01-26T14:16:51.089Z,75.39
2019-01-26T14:19:55.821Z,75.56
2019-01-26T14:23:00.605Z,75.71
2019-01-26T14:26:05.792Z,75.75
2019-01-26T14:29:10.524Z,76.11
2019-01-26T14:32:15.240Z,76.36
2019-01-26T14:35:19.689Z,76.56
2019-01-26T14:38:24.113Z,76.57
2019-01-26T14:41:28.822Z,75.46
2019-01-26T14:44:33.261Z,75.81
2019-01-26T14:47:37.688Z,76.79
2019-01-26T14:50:42.611Z,76.84
2019-01-26T14:53:47.880Z,77.01
2019-01-26T14:56:52.895Z,76.48
2019-01-26T14:59:58.474Z,76.32
2019-01-26T15:03:02.879Z,76.64
2019-01-26T15:06:07.308Z,76.98
2019-01-26T15:09:11.731Z,76.94
2019-01-26T15:12:16.460Z,76.97
2019-01-26T15:15:22.096Z,76.88
2019-01-26T15:18:26.822Z,76.48
2019-01-26T15:21:31.259Z,76.76
2019-01-26T15:24:35.695Z,76.74
2019-01-26T15:27:40.134Z,77.13
2019-01-26T15:30:44.921Z,77.49
2019-01-26T15:33:49.345Z,77.28
2019-01-26T15:36:54.079Z,77.35
2019-01-26T15:39:58.502Z,77.83
2019-01-26T15:43:03.227Z,77.94
2019-01-26T15:46:07.966Z,78.28
2019-01-26T15:49:12.402Z,78.33
2019-01-26T15:52:17.234Z,78.32
2019-01-26T15:55:26.968Z,78.41
2019-01-26T15:58:31.399Z,78.46
2019-01-26T16:01:36.126Z,78.57
2019-01-26T16:04:40.555Z,78.56
2019-01-26T16:07:44.989Z,78.19
2019-01-26T16:10:49.410Z,78.82
2019-01-26T16:13:53.848Z,78.76
2019-01-26T16:16:58.327Z,79.26
2019-01-26T16:20:02.804Z,79.48
2019-01-26T16:23:09.504Z,80.05
2019-01-26T16:26:13.384Z,80.08
2019-01-26T16:29:17.884Z,80.48
2019-01-26T16:32:22.609Z,79.43
2019-01-26T16:35:27.546Z,79.00
2019-01-26T16:38:31.982Z,78.71
2019-01-26T16:41:36.416Z,78.10
2019-01-26T16:44:40.843Z,78.11
2019-01-26T16:47:45.559Z,77.94
2019-01-26T16:50:49.996Z,77.58
2019-01-26T16:53:54.708Z,77.02
2019-01-26T16:56:59.139Z,77.11
2019-01-26T17:00:05.288Z,79.23
2019-01-26T17:03:10.327Z,76.75
2019-01-26T17:06:14.914Z,76.52
2019-01-26T17:09:19.601Z,76.35
2019-01-26T17:12:24.349Z,76.30
2019-01-26T17:15:28.785Z,76.72
2019-01-26T17:18:33.218Z,76.59
2019-01-26T17:21:37.666Z,76.49
2019-01-26T17:24:42.088Z,76.67
2019-01-26T17:27:48.922Z,76.63
2019-01-26T17:30:53.922Z,76.11
2019-01-26T17:33:58.351Z,76.42
2019-01-26T17:37:02.782Z,75.87
2019-01-26T17:40:12.194Z,75.18
2019-01-26T17:43:16.706Z,74.43
2019-01-26T17:46:21.138Z,74.63
2019-01-26T17:49:25.590Z,74.50
2019-01-26T17:52:30.027Z,74.23
2019-01-26T17:55:34.472Z,74.56
2019-01-26T17:58:39.200Z,74.25
2019-01-26T18:01:43.904Z,74.47
2019-01-26T18:04:48.631Z,74.35
2019-01-26T18:07:53.057Z,73.95
2019-01-26T18:10:57.883Z,73.95
2019-01-26T18:14:02.323Z,74.02
2019-01-26T18:17:07.283Z,74.01
2019-01-26T18:20:17.119Z,74.11
2019-01-26T18:23:23.674Z,74.24
2019-01-26T18:26:28.101Z,74.67
2019-01-26T18:29:32.826Z,74.74
2019-01-26T18:32:37.254Z,74.79
2019-01-26T18:35:41.689Z,75.56
2019-01-26T18:38:46.404Z,76.09
2019-01-26T18:41:50.829Z,76.32
2019-01-26T18:44:55.267Z,76.69
2019-01-26T18:47:59.695Z,76.70
2019-01-26T18:51:04.408Z,76.69
2019-01-26T18:54:08.846Z,76.29
2019-01-26T18:57:13.276Z,77.04
2019-01-26T19:00:27.690Z,77.04
2019-01-26T19:03:42.687Z,76.79
2019-01-26T19:06:47.425Z,76.29
2019-01-26T19:09:52.143Z,76.51
2019-01-26T19:12:56.570Z,76.64
2019-01-26T19:16:01.393Z,76.34
2019-01-26T19:19:06.132Z,76.33
2019-01-26T19:22:10.558Z,76.10
2019-01-26T19:25:20.099Z,76.03
2019-01-26T19:28:24.837Z,76.12
2019-01-26T19:31:29.444Z,75.87
2019-01-26T19:34:33.917Z,76.08
2019-01-26T19:37:38.716Z,75.87
2019-01-26T19:40:43.221Z,76.55
2019-01-26T19:43:47.758Z,76.59
2019-01-26T19:46:52.496Z,76.63
2019-01-26T19:49:57.244Z,76.55
2019-01-26T19:53:01.710Z,76.26
2019-01-26T19:56:06.423Z,75.56
2019-01-26T19:59:11.126Z,76.31
2019-01-26T20:02:15.633Z,76.71
2019-01-26T20:05:25.338Z,76.06
2019-01-26T20:08:29.887Z,76.36
2019-01-26T20:11:34.638Z,76.25
2019-01-26T20:14:39.467Z,76.64
2019-01-26T20:17:46.061Z,76.71
2019-01-26T20:20:50.636Z,76.40
2019-01-26T20:23:55.407Z,76.39
2019-01-26T20:26:59.849Z,75.99
2019-01-26T20:30:07.647Z,76.16
2019-01-26T20:33:12.087Z,76.43
2019-01-26T20:36:16.522Z,76.48
2019-01-26T20:39:20.979Z,76.34
2019-01-26T20:42:25.408Z,76.04
2019-01-26T20:45:30.979Z,76.25
2019-01-26T20:48:35.410Z,76.12
2019-01-26T20:51:40.138Z,76.38
2019-01-26T20:54:44.563Z,76.39
2019-01-26T20:57:49.480Z,76.50
2019-01-26T21:00:54.286Z,76.32
2019-01-26T21:03:58.974Z,76.25
2019-01-26T21:07:03.687Z,75.78
2019-01-26T21:10:18.361Z,75.72
2019-01-26T21:13:22.788Z,76.04
2019-01-26T21:16:27.221Z,75.83
2019-01-26T21:19:31.644Z,76.08
2019-01-26T21:22:36.078Z,76.02
2019-01-26T21:25:40.513Z,75.97
2019-01-26T21:28:45.298Z,75.55
2019-01-26T21:31:50.056Z,75.60
2019-01-26T21:34:54.483Z,75.67
2019-01-26T21:37:58.922Z,75.66
2019-01-26T21:41:03.501Z,75.45
2019-01-26T21:44:07.929Z,75.40
2019-01-26T21:47:12.606Z,75.73
2019-01-26T21:50:24.473Z,75.19
2019-01-26T21:53:28.934Z,75.25
2019-01-26T21:56:33.613Z,75.59
2019-01-26T21:59:38.343Z,75.56
2019-01-26T22:02:42.780Z,75.31
2019-01-26T22:05:47.497Z,75.12
2019-01-26T22:08:51.929Z,74.94
2019-01-26T22:11:56.652Z,74.79
2019-01-26T22:15:01.085Z,74.60
2019-01-26T22:18:05.896Z,74.87
2019-01-26T22:21:10.646Z,74.37
2019-01-26T22:24:15.083Z,74.59
2019-01-26T22:27:19.996Z,74.80
2019-01-26T22:30:34.004Z,74.46
2019-01-26T22:33:38.458Z,74.84
2019-01-26T22:36:43.200Z,74.91
2019-01-26T22:39:47.980Z,74.89
2019-01-26T22:42:52.673Z,74.69
2019-01-26T22:45:57.394Z,74.75
2019-01-26T22:49:01.831Z,74.76
2019-01-26T22:52:06.320Z,74.72
2019-01-26T22:55:15.399Z,74.73
2019-01-26T22:58:20.104Z,74.85
2019-01-26T23:01:25.763Z,74.84
2019-01-26T23:04:38.450Z,75.11
2019-01-26T23:07:42.874Z,74.26
2019-01-26T23:11:03.353Z,74.31
2019-01-26T23:14:27.057Z,74.21
2019-01-26T23:18:05.816Z,73.97
2019-01-26T23:21:49.645Z,74.02
2019-01-26T23:25:28.491Z,73.94
2019-01-26T23:28:49.697Z,74.07
2019-01-26T23:31:54.430Z,73.94
2019-01-26T23:34:59.151Z,73.36
2019-01-26T23:38:05.827Z,73.59
2019-01-26T23:41:10.569Z,73.86
2019-01-26T23:44:15.003Z,74.08
2019-01-26T23:47:19.442Z,73.91
2019-01-26T23:50:23.882Z,73.91
2019-01-26T23:53:28.573Z,73.94
2019-01-26T23:56:33.005Z,73.79
2019-01-26T23:59:37.438Z,73.56
